sensor_id;sensor_type;location;lat;lon;timestamp;P1;durP1;ratioP1;P2;durP2;ratioP2
64459;SDS011;50828;53.756;21.140;2023-11-19T00:03:23;13.90;;;7.20;;
64459;SDS011;50828;53.756;21.140;2023-11-19T00:08:31;15.90;;;7.80;;
64459;SDS011;50828;53.756;21.140;2023-11-19T00:13:39;20.50;;;8.50;;
64459;SDS011;50828;53.756;21.140;2023-11-19T00:18:46;18.60;;;8.60;;
64459;SDS011;50828;53.756;21.140;2023-11-19T00:23:54;18.10;;;9.40;;
64459;SDS011;50828;53.756;21.140;2023-11-19T00:29:02;20.50;;;8.90;;
64459;SDS011;50828;53.756;21.140;2023-11-19T00:34:10;18.80;;;8.80;;
64459;SDS011;50828;53.756;21.140;2023-11-19T00:39:18;19.00;;;9.10;;
64459;SDS011;50828;53.756;21.140;2023-11-19T00:44:25;17.60;;;8.20;;
64459;SDS011;50828;53.756;21.140;2023-11-19T00:49:33;14.70;;;7.60;;
64459;SDS011;50828;53.756;21.140;2023-11-19T00:54:41;18.00;;;7.90;;
64459;SDS011;50828;53.756;21.140;2023-11-19T00:59:48;15.00;;;7.90;;
64459;SDS011;50828;53.756;21.140;2023-11-19T01:04:56;15.80;;;7.60;;
64459;SDS011;50828;53.756;21.140;2023-11-19T01:10:05;18.50;;;8.10;;
64459;SDS011;50828;53.756;21.140;2023-11-19T01:15:13;18.60;;;8.50;;
64459;SDS011;50828;53.756;21.140;2023-11-19T01:20:22;13.90;;;6.90;;
64459;SDS011;50828;53.756;21.140;2023-11-19T01:25:30;17.00;;;7.40;;
64459;SDS011;50828;53.756;21.140;2023-11-19T01:30:39;17.10;;;7.40;;
64459;SDS011;50828;53.756;21.140;2023-11-19T01:35:47;16.30;;;8.40;;
64459;SDS011;50828;53.756;21.140;2023-11-19T01:40:57;14.70;;;6.70;;
64459;SDS011;50828;53.756;21.140;2023-11-19T01:46:05;15.70;;;7.40;;
64459;SDS011;50828;53.756;21.140;2023-11-19T01:51:15;13.50;;;7.50;;
64459;SDS011;50828;53.756;21.140;2023-11-19T01:56:23;12.30;;;6.70;;
64459;SDS011;50828;53.756;21.140;2023-11-19T02:01:32;13.70;;;6.90;;
64459;SDS011;50828;53.756;21.140;2023-11-19T02:06:44;12.50;;;6.40;;
64459;SDS011;50828;53.756;21.140;2023-11-19T02:11:53;15.80;;;6.90;;
64459;SDS011;50828;53.756;21.140;2023-11-19T02:17:02;13.30;;;6.20;;
64459;SDS011;50828;53.756;21.140;2023-11-19T02:22:10;13.90;;;6.90;;
64459;SDS011;50828;53.756;21.140;2023-11-19T02:27:19;14.00;;;6.10;;
64459;SDS011;50828;53.756;21.140;2023-11-19T02:32:34;12.40;;;6.00;;
64459;SDS011;50828;53.756;21.140;2023-11-19T02:37:44;13.30;;;6.50;;
64459;SDS011;50828;53.756;21.140;2023-11-19T02:42:52;13.20;;;6.40;;
64459;SDS011;50828;53.756;21.140;2023-11-19T02:48:00;17.20;;;7.00;;
64459;SDS011;50828;53.756;21.140;2023-11-19T02:53:10;15.60;;;6.70;;
64459;SDS011;50828;53.756;21.140;2023-11-19T02:58:18;17.20;;;6.70;;
64459;SDS011;50828;53.756;21.140;2023-11-19T03:03:29;15.50;;;6.60;;
64459;SDS011;50828;53.756;21.140;2023-11-19T03:08:42;11.20;;;5.40;;
64459;SDS011;50828;53.756;21.140;2023-11-19T03:13:49;13.10;;;6.50;;
64459;SDS011;50828;53.756;21.140;2023-11-19T03:18:57;13.70;;;6.00;;
64459;SDS011;50828;53.756;21.140;2023-11-19T03:24:06;12.90;;;5.90;;
64459;SDS011;50828;53.756;21.140;2023-11-19T03:29:14;11.50;;;6.20;;
64459;SDS011;50828;53.756;21.140;2023-11-19T03:34:21;14.10;;;7.20;;
64459;SDS011;50828;53.756;21.140;2023-11-19T03:39:29;13.90;;;7.10;;
64459;SDS011;50828;53.756;21.140;2023-11-19T03:44:36;15.70;;;8.00;;
64459;SDS011;50828;53.756;21.140;2023-11-19T03:49:44;15.40;;;7.50;;
64459;SDS011;50828;53.756;21.140;2023-11-19T03:54:55;17.30;;;7.40;;
64459;SDS011;50828;53.756;21.140;2023-11-19T04:00:04;14.30;;;7.60;;
64459;SDS011;50828;53.756;21.140;2023-11-19T04:05:17;14.60;;;7.60;;
64459;SDS011;50828;53.756;21.140;2023-11-19T04:10:25;14.60;;;7.50;;
64459;SDS011;50828;53.756;21.140;2023-11-19T04:15:36;13.90;;;7.50;;
64459;SDS011;50828;53.756;21.140;2023-11-19T04:20:43;15.80;;;8.20;;
64459;SDS011;50828;53.756;21.140;2023-11-19T04:25:52;13.00;;;7.40;;
64459;SDS011;50828;53.756;21.140;2023-11-19T04:31:13;17.40;;;8.00;;
64459;SDS011;50828;53.756;21.140;2023-11-19T04:36:21;17.50;;;8.50;;
64459;SDS011;50828;53.756;21.140;2023-11-19T04:41:29;15.40;;;8.00;;
64459;SDS011;50828;53.756;21.140;2023-11-19T04:46:36;13.40;;;7.20;;
64459;SDS011;50828;53.756;21.140;2023-11-19T04:51:44;11.70;;;6.60;;
64459;SDS011;50828;53.756;21.140;2023-11-19T04:56:52;16.90;;;8.40;;
64459;SDS011;50828;53.756;21.140;2023-11-19T05:01:59;14.20;;;7.40;;
64459;SDS011;50828;53.756;21.140;2023-11-19T05:07:07;16.30;;;7.50;;
64459;SDS011;50828;53.756;21.140;2023-11-19T05:12:15;14.50;;;8.00;;
64459;SDS011;50828;53.756;21.140;2023-11-19T05:17:22;17.20;;;8.20;;
64459;SDS011;50828;53.756;21.140;2023-11-19T05:22:29;15.00;;;8.40;;
64459;SDS011;50828;53.756;21.140;2023-11-19T05:27:37;15.30;;;7.90;;
64459;SDS011;50828;53.756;21.140;2023-11-19T05:32:44;18.40;;;8.20;;
64459;SDS011;50828;53.756;21.140;2023-11-19T05:37:52;16.00;;;8.60;;
64459;SDS011;50828;53.756;21.140;2023-11-19T05:43:00;18.50;;;8.80;;
64459;SDS011;50828;53.756;21.140;2023-11-19T05:48:07;14.40;;;7.50;;
64459;SDS011;50828;53.756;21.140;2023-11-19T05:53:15;16.80;;;9.00;;
64459;SDS011;50828;53.756;21.140;2023-11-19T05:58:24;17.50;;;8.50;;
64459;SDS011;50828;53.756;21.140;2023-11-19T06:03:33;14.80;;;7.90;;
64459;SDS011;50828;53.756;21.140;2023-11-19T06:08:41;20.10;;;8.90;;
64459;SDS011;50828;53.756;21.140;2023-11-19T06:13:48;20.20;;;9.50;;
64459;SDS011;50828;53.756;21.140;2023-11-19T06:18:56;20.10;;;9.80;;
64459;SDS011;50828;53.756;21.140;2023-11-19T06:24:03;14.90;;;8.20;;
64459;SDS011;50828;53.756;21.140;2023-11-19T06:29:12;18.20;;;8.50;;
64459;SDS011;50828;53.756;21.140;2023-11-19T06:34:23;18.50;;;10.10;;
64459;SDS011;50828;53.756;21.140;2023-11-19T06:39:30;23.70;;;10.60;;
64459;SDS011;50828;53.756;21.140;2023-11-19T06:44:39;20.40;;;10.40;;
64459;SDS011;50828;53.756;21.140;2023-11-19T06:49:46;21.50;;;9.70;;
64459;SDS011;50828;53.756;21.140;2023-11-19T06:54:53;19.30;;;9.40;;
64459;SDS011;50828;53.756;21.140;2023-11-19T07:00:05;21.90;;;9.60;;
64459;SDS011;50828;53.756;21.140;2023-11-19T07:05:15;17.60;;;9.40;;
64459;SDS011;50828;53.756;21.140;2023-11-19T07:10:22;22.60;;;10.90;;
64459;SDS011;50828;53.756;21.140;2023-11-19T07:15:30;21.50;;;11.60;;
64459;SDS011;50828;53.756;21.140;2023-11-19T07:20:37;24.20;;;12.90;;
64459;SDS011;50828;53.756;21.140;2023-11-19T07:25:45;22.50;;;12.00;;
64459;SDS011;50828;53.756;21.140;2023-11-19T07:30:54;23.60;;;11.90;;
64459;SDS011;50828;53.756;21.140;2023-11-19T07:36:01;26.60;;;13.00;;
64459;SDS011;50828;53.756;21.140;2023-11-19T07:41:09;22.20;;;11.60;;
64459;SDS011;50828;53.756;21.140;2023-11-19T07:46:17;27.80;;;11.30;;
64459;SDS011;50828;53.756;21.140;2023-11-19T07:51:24;24.30;;;11.70;;
64459;SDS011;50828;53.756;21.140;2023-11-19T07:56:32;22.30;;;9.10;;
64459;SDS011;50828;53.756;21.140;2023-11-19T08:01:40;26.00;;;11.70;;
64459;SDS011;50828;53.756;21.140;2023-11-19T08:06:48;20.10;;;9.80;;
64459;SDS011;50828;53.756;21.140;2023-11-19T08:11:57;23.50;;;10.80;;
64459;SDS011;50828;53.756;21.140;2023-11-19T08:17:04;23.60;;;9.80;;
64459;SDS011;50828;53.756;21.140;2023-11-19T08:22:12;25.60;;;11.30;;
64459;SDS011;50828;53.756;21.140;2023-11-19T08:27:20;20.90;;;10.90;;
64459;SDS011;50828;53.756;21.140;2023-11-19T08:32:30;21.00;;;10.10;;
64459;SDS011;50828;53.756;21.140;2023-11-19T08:37:38;22.50;;;9.90;;
64459;SDS011;50828;53.756;21.140;2023-11-19T08:42:45;23.00;;;9.50;;
64459;SDS011;50828;53.756;21.140;2023-11-19T08:47:54;23.30;;;9.70;;
64459;SDS011;50828;53.756;21.140;2023-11-19T08:53:02;25.70;;;11.10;;
64459;SDS011;50828;53.756;21.140;2023-11-19T08:58:10;27.60;;;11.50;;
64459;SDS011;50828;53.756;21.140;2023-11-19T09:03:17;24.80;;;10.40;;
64459;SDS011;50828;53.756;21.140;2023-11-19T09:08:25;24.70;;;11.50;;
64459;SDS011;50828;53.756;21.140;2023-11-19T09:13:33;20.20;;;10.00;;
64459;SDS011;50828;53.756;21.140;2023-11-19T09:18:40;20.20;;;9.50;;
64459;SDS011;50828;53.756;21.140;2023-11-19T09:23:48;20.90;;;10.10;;
64459;SDS011;50828;53.756;21.140;2023-11-19T09:28:56;23.50;;;10.80;;
64459;SDS011;50828;53.756;21.140;2023-11-19T09:34:04;19.20;;;10.10;;
64459;SDS011;50828;53.756;21.140;2023-11-19T09:39:11;23.50;;;10.20;;
64459;SDS011;50828;53.756;21.140;2023-11-19T09:44:21;20.90;;;10.30;;
64459;SDS011;50828;53.756;21.140;2023-11-19T09:49:31;20.10;;;9.80;;
64459;SDS011;50828;53.756;21.140;2023-11-19T09:54:41;23.10;;;11.00;;
64459;SDS011;50828;53.756;21.140;2023-11-19T09:59:48;25.10;;;10.60;;
64459;SDS011;50828;53.756;21.140;2023-11-19T10:04:58;23.70;;;11.40;;
64459;SDS011;50828;53.756;21.140;2023-11-19T10:10:09;23.70;;;9.90;;
64459;SDS011;50828;53.756;21.140;2023-11-19T10:15:22;21.60;;;10.30;;
64459;SDS011;50828;53.756;21.140;2023-11-19T10:20:32;19.20;;;9.00;;
64459;SDS011;50828;53.756;21.140;2023-11-19T10:25:42;32.40;;;13.70;;
64459;SDS011;50828;53.756;21.140;2023-11-19T10:30:50;23.80;;;11.30;;
64459;SDS011;50828;53.756;21.140;2023-11-19T10:36:03;26.60;;;11.50;;
64459;SDS011;50828;53.756;21.140;2023-11-19T10:41:11;29.70;;;12.90;;
64459;SDS011;50828;53.756;21.140;2023-11-19T10:46:37;26.60;;;12.90;;
64459;SDS011;50828;53.756;21.140;2023-11-19T10:51:45;28.70;;;12.80;;
64459;SDS011;50828;53.756;21.140;2023-11-19T10:56:58;24.50;;;11.40;;
64459;SDS011;50828;53.756;21.140;2023-11-19T11:02:07;31.20;;;13.80;;
64459;SDS011;50828;53.756;21.140;2023-11-19T11:07:21;31.50;;;12.20;;
64459;SDS011;50828;53.756;21.140;2023-11-19T11:12:42;31.60;;;13.20;;
64459;SDS011;50828;53.756;21.140;2023-11-19T11:17:52;24.70;;;11.30;;
64459;SDS011;50828;53.756;21.140;2023-11-19T11:23:07;30.30;;;12.60;;
64459;SDS011;50828;53.756;21.140;2023-11-19T11:28:28;27.20;;;11.90;;
64459;SDS011;50828;53.756;21.140;2023-11-19T11:33:52;30.60;;;12.10;;
64459;SDS011;50828;53.756;21.140;2023-11-19T11:39:11;34.20;;;13.00;;
64459;SDS011;50828;53.756;21.140;2023-11-19T11:44:19;30.90;;;12.80;;
64459;SDS011;50828;53.756;21.140;2023-11-19T11:50:09;28.00;;;11.40;;
64459;SDS011;50828;53.756;21.140;2023-11-19T11:55:17;34.30;;;12.70;;
64459;SDS011;50828;53.756;21.140;2023-11-19T12:00:29;33.60;;;12.60;;
64459;SDS011;50828;53.756;21.140;2023-11-19T12:05:39;36.60;;;15.30;;
64459;SDS011;50828;53.756;21.140;2023-11-19T12:10:50;36.00;;;15.30;;
64459;SDS011;50828;53.756;21.140;2023-11-19T12:16:10;36.70;;;15.10;;
64459;SDS011;50828;53.756;21.140;2023-11-19T12:26:42;37.10;;;13.10;;
64459;SDS011;50828;53.756;21.140;2023-11-19T12:31:55;31.50;;;12.50;;
64459;SDS011;50828;53.756;21.140;2023-11-19T12:37:09;31.40;;;11.50;;
64459;SDS011;50828;53.756;21.140;2023-11-19T12:42:16;22.60;;;9.90;;
64459;SDS011;50828;53.756;21.140;2023-11-19T12:47:25;22.20;;;9.60;;
64459;SDS011;50828;53.756;21.140;2023-11-19T12:52:32;22.30;;;10.40;;
64459;SDS011;50828;53.756;21.140;2023-11-19T12:57:40;24.00;;;10.20;;
64459;SDS011;50828;53.756;21.140;2023-11-19T13:02:48;20.50;;;9.10;;
64459;SDS011;50828;53.756;21.140;2023-11-19T13:07:59;23.20;;;10.00;;
64459;SDS011;50828;53.756;21.140;2023-11-19T13:18:15;21.30;;;8.90;;
64459;SDS011;50828;53.756;21.140;2023-11-19T13:23:23;21.10;;;8.90;;
64459;SDS011;50828;53.756;21.140;2023-11-19T13:28:30;20.10;;;8.70;;
64459;SDS011;50828;53.756;21.140;2023-11-19T13:33:38;17.80;;;7.60;;
64459;SDS011;50828;53.756;21.140;2023-11-19T13:38:46;17.80;;;8.00;;
64459;SDS011;50828;53.756;21.140;2023-11-19T13:43:53;22.80;;;9.00;;
64459;SDS011;50828;53.756;21.140;2023-11-19T13:49:00;16.50;;;8.10;;
64459;SDS011;50828;53.756;21.140;2023-11-19T13:54:08;23.70;;;10.00;;
64459;SDS011;50828;53.756;21.140;2023-11-19T13:59:18;25.00;;;10.80;;
64459;SDS011;50828;53.756;21.140;2023-11-19T14:04:26;23.50;;;10.50;;
64459;SDS011;50828;53.756;21.140;2023-11-19T14:09:34;23.40;;;11.10;;
64459;SDS011;50828;53.756;21.140;2023-11-19T14:14:41;25.90;;;11.60;;
64459;SDS011;50828;53.756;21.140;2023-11-19T14:19:49;27.60;;;12.00;;
64459;SDS011;50828;53.756;21.140;2023-11-19T14:24:57;31.00;;;12.80;;
64459;SDS011;50828;53.756;21.140;2023-11-19T14:30:05;28.70;;;12.70;;
64459;SDS011;50828;53.756;21.140;2023-11-19T14:35:16;30.00;;;13.50;;
64459;SDS011;50828;53.756;21.140;2023-11-19T14:40:23;35.30;;;14.60;;
64459;SDS011;50828;53.756;21.140;2023-11-19T14:45:34;37.30;;;15.40;;
64459;SDS011;50828;53.756;21.140;2023-11-19T14:50:52;37.30;;;14.00;;
64459;SDS011;50828;53.756;21.140;2023-11-19T14:55:59;32.80;;;15.00;;
64459;SDS011;50828;53.756;21.140;2023-11-19T15:01:08;30.50;;;13.60;;
64459;SDS011;50828;53.756;21.140;2023-11-19T15:06:22;32.20;;;13.10;;
64459;SDS011;50828;53.756;21.140;2023-11-19T15:11:30;32.70;;;13.60;;
64459;SDS011;50828;53.756;21.140;2023-11-19T15:16:39;33.00;;;14.30;;
64459;SDS011;50828;53.756;21.140;2023-11-19T15:21:47;30.00;;;12.90;;
64459;SDS011;50828;53.756;21.140;2023-11-19T15:26:55;33.50;;;13.80;;
64459;SDS011;50828;53.756;21.140;2023-11-19T15:32:07;32.60;;;13.60;;
64459;SDS011;50828;53.756;21.140;2023-11-19T15:37:15;37.30;;;13.60;;
64459;SDS011;50828;53.756;21.140;2023-11-19T15:42:24;28.00;;;11.40;;
64459;SDS011;50828;53.756;21.140;2023-11-19T15:47:31;36.30;;;14.40;;
64459;SDS011;50828;53.756;21.140;2023-11-19T15:52:40;41.80;;;15.20;;
64459;SDS011;50828;53.756;21.140;2023-11-19T15:57:47;33.30;;;14.40;;
64459;SDS011;50828;53.756;21.140;2023-11-19T16:02:57;37.50;;;14.70;;
64459;SDS011;50828;53.756;21.140;2023-11-19T16:08:05;36.40;;;15.50;;
64459;SDS011;50828;53.756;21.140;2023-11-19T16:13:14;30.90;;;14.00;;
64459;SDS011;50828;53.756;21.140;2023-11-19T16:18:23;39.20;;;15.30;;
64459;SDS011;50828;53.756;21.140;2023-11-19T16:23:31;36.50;;;15.20;;
64459;SDS011;50828;53.756;21.140;2023-11-19T16:28:40;40.60;;;15.20;;
64459;SDS011;50828;53.756;21.140;2023-11-19T16:33:48;34.20;;;12.80;;
64459;SDS011;50828;53.756;21.140;2023-11-19T16:38:55;30.50;;;12.30;;
64459;SDS011;50828;53.756;21.140;2023-11-19T16:44:06;33.30;;;13.40;;
64459;SDS011;50828;53.756;21.140;2023-11-19T16:49:14;33.60;;;12.80;;
64459;SDS011;50828;53.756;21.140;2023-11-19T16:54:22;40.40;;;14.60;;
64459;SDS011;50828;53.756;21.140;2023-11-19T16:59:29;32.60;;;13.20;;
64459;SDS011;50828;53.756;21.140;2023-11-19T17:04:37;39.50;;;15.50;;
64459;SDS011;50828;53.756;21.140;2023-11-19T17:09:45;34.60;;;14.50;;
64459;SDS011;50828;53.756;21.140;2023-11-19T17:14:53;33.20;;;14.60;;
64459;SDS011;50828;53.756;21.140;2023-11-19T17:20:08;36.00;;;14.80;;
64459;SDS011;50828;53.756;21.140;2023-11-19T17:25:18;34.40;;;14.30;;
64459;SDS011;50828;53.756;21.140;2023-11-19T17:30:26;35.00;;;14.50;;
64459;SDS011;50828;53.756;21.140;2023-11-19T17:35:34;39.20;;;15.50;;
64459;SDS011;50828;53.756;21.140;2023-11-19T17:40:42;38.10;;;15.80;;
64459;SDS011;50828;53.756;21.140;2023-11-19T17:45:51;39.70;;;15.80;;
64459;SDS011;50828;53.756;21.140;2023-11-19T17:51:04;38.80;;;16.50;;
64459;SDS011;50828;53.756;21.140;2023-11-19T17:56:13;44.50;;;17.40;;
64459;SDS011;50828;53.756;21.140;2023-11-19T18:01:21;40.40;;;16.00;;
64459;SDS011;50828;53.756;21.140;2023-11-19T18:06:29;45.20;;;18.10;;
64459;SDS011;50828;53.756;21.140;2023-11-19T18:11:38;46.10;;;17.20;;
64459;SDS011;50828;53.756;21.140;2023-11-19T18:16:45;42.50;;;16.80;;
64459;SDS011;50828;53.756;21.140;2023-11-19T18:21:53;55.20;;;19.80;;
64459;SDS011;50828;53.756;21.140;2023-11-19T18:27:02;49.00;;;19.50;;
64459;SDS011;50828;53.756;21.140;2023-11-19T18:32:10;53.20;;;20.00;;
64459;SDS011;50828;53.756;21.140;2023-11-19T18:37:18;48.70;;;19.40;;
64459;SDS011;50828;53.756;21.140;2023-11-19T18:42:28;46.70;;;17.50;;
64459;SDS011;50828;53.756;21.140;2023-11-19T18:47:36;45.70;;;18.30;;
64459;SDS011;50828;53.756;21.140;2023-11-19T18:52:44;45.30;;;17.40;;
64459;SDS011;50828;53.756;21.140;2023-11-19T18:57:51;46.10;;;18.40;;
64459;SDS011;50828;53.756;21.140;2023-11-19T19:02:58;47.20;;;18.40;;
64459;SDS011;50828;53.756;21.140;2023-11-19T19:08:07;42.80;;;18.00;;
64459;SDS011;50828;53.756;21.140;2023-11-19T19:13:14;43.30;;;17.20;;
64459;SDS011;50828;53.756;21.140;2023-11-19T19:18:22;41.80;;;18.30;;
64459;SDS011;50828;53.756;21.140;2023-11-19T19:23:29;40.80;;;16.90;;
64459;SDS011;50828;53.756;21.140;2023-11-19T19:28:37;40.20;;;18.00;;
64459;SDS011;50828;53.756;21.140;2023-11-19T19:33:44;41.40;;;16.70;;
64459;SDS011;50828;53.756;21.140;2023-11-19T19:38:56;42.20;;;18.10;;
64459;SDS011;50828;53.756;21.140;2023-11-19T19:44:05;42.20;;;15.70;;
64459;SDS011;50828;53.756;21.140;2023-11-19T19:49:14;44.80;;;18.80;;
64459;SDS011;50828;53.756;21.140;2023-11-19T19:54:21;44.70;;;18.00;;
64459;SDS011;50828;53.756;21.140;2023-11-19T19:59:30;40.80;;;16.60;;
64459;SDS011;50828;53.756;21.140;2023-11-19T20:04:38;50.10;;;18.60;;
64459;SDS011;50828;53.756;21.140;2023-11-19T20:09:50;50.20;;;17.10;;
64459;SDS011;50828;53.756;21.140;2023-11-19T20:14:57;50.50;;;19.30;;
64459;SDS011;50828;53.756;21.140;2023-11-19T20:20:06;45.30;;;17.40;;
64459;SDS011;50828;53.756;21.140;2023-11-19T20:25:17;39.80;;;15.60;;
64459;SDS011;50828;53.756;21.140;2023-11-19T20:30:24;40.00;;;16.00;;
64459;SDS011;50828;53.756;21.140;2023-11-19T20:35:33;37.00;;;16.50;;
64459;SDS011;50828;53.756;21.140;2023-11-19T20:40:42;37.10;;;15.50;;
64459;SDS011;50828;53.756;21.140;2023-11-19T20:45:50;38.20;;;16.40;;
64459;SDS011;50828;53.756;21.140;2023-11-19T20:50:57;40.40;;;17.00;;
64459;SDS011;50828;53.756;21.140;2023-11-19T20:56:05;38.50;;;16.70;;
64459;SDS011;50828;53.756;21.140;2023-11-19T21:01:13;36.90;;;16.30;;
64459;SDS011;50828;53.756;21.140;2023-11-19T21:06:22;36.90;;;14.90;;
64459;SDS011;50828;53.756;21.140;2023-11-19T21:11:29;45.30;;;18.30;;
64459;SDS011;50828;53.756;21.140;2023-11-19T21:16:36;50.30;;;20.20;;
64459;SDS011;50828;53.756;21.140;2023-11-19T21:21:44;52.40;;;19.10;;
64459;SDS011;50828;53.756;21.140;2023-11-19T21:26:51;47.90;;;18.30;;
64459;SDS011;50828;53.756;21.140;2023-11-19T21:31:59;40.40;;;17.50;;
64459;SDS011;50828;53.756;21.140;2023-11-19T21:37:06;40.30;;;15.90;;
64459;SDS011;50828;53.756;21.140;2023-11-19T21:42:14;46.80;;;17.30;;
64459;SDS011;50828;53.756;21.140;2023-11-19T21:47:21;43.20;;;17.60;;
64459;SDS011;50828;53.756;21.140;2023-11-19T21:52:30;39.10;;;15.90;;
64459;SDS011;50828;53.756;21.140;2023-11-19T21:57:38;45.50;;;18.60;;
64459;SDS011;50828;53.756;21.140;2023-11-19T22:02:45;49.00;;;18.20;;
64459;SDS011;50828;53.756;21.140;2023-11-19T22:07:53;47.90;;;19.40;;
64459;SDS011;50828;53.756;21.140;2023-11-19T22:13:20;48.60;;;18.20;;
64459;SDS011;50828;53.756;21.140;2023-11-19T22:18:27;45.00;;;18.00;;
64459;SDS011;50828;53.756;21.140;2023-11-19T22:23:35;50.70;;;19.50;;
64459;SDS011;50828;53.756;21.140;2023-11-19T22:28:43;48.50;;;19.00;;
64459;SDS011;50828;53.756;21.140;2023-11-19T22:33:50;47.50;;;18.40;;
64459;SDS011;50828;53.756;21.140;2023-11-19T22:38:58;60.50;;;23.00;;
64459;SDS011;50828;53.756;21.140;2023-11-19T22:44:06;47.20;;;19.20;;
64459;SDS011;50828;53.756;21.140;2023-11-19T22:49:14;38.80;;;15.50;;
64459;SDS011;50828;53.756;21.140;2023-11-19T22:54:21;38.70;;;15.00;;
64459;SDS011;50828;53.756;21.140;2023-11-19T22:59:29;37.30;;;13.80;;
64459;SDS011;50828;53.756;21.140;2023-11-19T23:04:36;34.40;;;13.20;;
64459;SDS011;50828;53.756;21.140;2023-11-19T23:09:44;53.20;;;17.70;;
64459;SDS011;50828;53.756;21.140;2023-11-19T23:14:51;47.60;;;17.20;;
64459;SDS011;50828;53.756;21.140;2023-11-19T23:20:03;36.60;;;14.30;;
64459;SDS011;50828;53.756;21.140;2023-11-19T23:25:14;33.80;;;15.30;;
64459;SDS011;50828;53.756;21.140;2023-11-19T23:30:22;29.50;;;10.60;;
64459;SDS011;50828;53.756;21.140;2023-11-19T23:35:30;31.00;;;12.60;;
64459;SDS011;50828;53.756;21.140;2023-11-19T23:40:38;26.70;;;12.30;;
64459;SDS011;50828;53.756;21.140;2023-11-19T23:45:45;28.50;;;11.10;;
64459;SDS011;50828;53.756;21.140;2023-11-19T23:50:53;31.10;;;12.10;;
64459;SDS011;50828;53.756;21.140;2023-11-19T23:56:04;24.40;;;10.70;;
